createdAt,value
2019-03-10T00:03:12.246Z,99333.73
2019-03-10T00:08:15.765Z,99335.19
2019-03-10T00:13:19.311Z,99353.50
2019-03-10T00:18:23.431Z,99356.33
2019-03-10T00:23:26.975Z,99403.47
2019-03-10T00:28:30.534Z,99395.14
2019-03-10T00:33:34.399Z,99422.75
2019-03-10T00:38:46.974Z,99428.21
2019-03-10T00:44:02.483Z,99435.00
2019-03-10T00:49:20.756Z,99457.41
2019-03-10T00:54:24.311Z,99480.73
2019-03-10T00:59:27.901Z,99492.58
2019-03-10T01:04:31.499Z,99492.83
2019-03-10T01:09:35.010Z,99512.59
2019-03-10T01:14:38.569Z,99528.34
2019-03-10T01:19:42.107Z,99540.97
2019-03-10T01:24:45.699Z,99564.16
2019-03-10T01:29:49.249Z,99567.20
2019-03-10T01:34:58.752Z,99566.30
2019-03-10T01:40:02.296Z,99572.01
2019-03-10T01:45:08.562Z,99585.31
2019-03-10T01:50:13.910Z,99568.27
2019-03-10T01:55:17.448Z,99573.41
2019-03-10T02:00:21.018Z,99562.73
2019-03-10T02:05:24.607Z,99569.73
2019-03-10T02:10:28.149Z,99568.91
2019-03-10T02:15:31.717Z,99560.85
2019-03-10T02:20:35.279Z,99583.05
2019-03-10T02:25:38.843Z,99562.77
2019-03-10T02:30:42.393Z,99569.81
2019-03-10T02:35:45.954Z,99561.88
2019-03-10T02:40:49.484Z,99568.42
2019-03-10T02:45:53.009Z,99551.56
2019-03-10T02:50:56.540Z,99557.11
2019-03-10T02:56:00.102Z,99546.28
2019-03-10T03:01:03.644Z,99560.71
2019-03-10T03:06:07.219Z,99551.45
2019-03-10T03:11:10.766Z,99551.75
2019-03-10T03:16:14.304Z,99557.58
2019-03-10T03:21:17.864Z,99559.93
2019-03-10T03:26:21.405Z,99574.23
2019-03-10T03:31:24.943Z,99567.16
2019-03-10T03:36:33.704Z,99571.31
2019-03-10T03:41:37.218Z,99556.22
2019-03-10T03:46:40.752Z,99566.48
2019-03-10T03:51:44.308Z,99569.02
2019-03-10T03:56:47.845Z,99572.73
2019-03-10T04:02:04.783Z,99571.84
2019-03-10T04:07:08.328Z,99566.42
2019-03-10T04:12:11.892Z,99556.09
2019-03-10T04:17:15.458Z,99555.91
2019-03-10T04:22:18.974Z,99544.61
2019-03-10T04:27:22.511Z,99537.03
2019-03-10T04:32:26.081Z,99533.17
2019-03-10T04:37:29.620Z,99530.56
2019-03-10T04:42:33.164Z,99529.22
2019-03-10T04:47:36.695Z,99509.05
2019-03-10T04:52:40.266Z,99512.02
2019-03-10T04:57:57.566Z,99517.43
2019-03-10T05:03:01.137Z,99524.03
2019-03-10T05:08:05.119Z,99522.77
2019-03-10T05:13:08.698Z,99514.14
2019-03-10T05:18:12.231Z,99526.53
2019-03-10T05:23:29.797Z,99510.00
2019-03-10T05:28:35.285Z,99525.41
2019-03-10T05:33:38.855Z,99522.18
2019-03-10T05:38:42.418Z,99523.19
2019-03-10T05:43:45.990Z,99532.75
2019-03-10T05:48:49.537Z,99526.63
2019-03-10T05:53:53.088Z,99530.74
2019-03-10T05:58:56.619Z,99517.84
2019-03-10T06:04:00.177Z,99512.67
2019-03-10T06:09:04.830Z,99516.00
2019-03-10T06:14:08.375Z,99518.09
2019-03-10T06:19:11.913Z,99510.39
2019-03-10T06:24:15.476Z,99511.23
2019-03-10T06:29:19.348Z,99515.28
2019-03-10T06:34:22.908Z,99511.27
2019-03-10T06:39:26.438Z,99502.12
2019-03-10T06:44:29.997Z,99497.81
2019-03-10T06:49:33.556Z,99489.75
2019-03-10T06:54:37.099Z,99492.22
2019-03-10T06:59:40.692Z,99488.02
2019-03-10T07:04:44.216Z,99485.29
2019-03-10T07:09:47.777Z,99483.70
2019-03-10T07:14:51.346Z,99475.64
2019-03-10T07:19:54.911Z,99471.17
2019-03-10T07:24:58.431Z,99462.09
2019-03-10T07:30:03.534Z,99462.67
2019-03-10T07:35:11.452Z,99467.77
2019-03-10T07:40:25.461Z,99465.41
2019-03-10T07:45:39.285Z,99464.35
2019-03-10T07:50:53.178Z,99458.27
2019-03-10T07:55:58.266Z,99449.44
2019-03-10T08:01:18.498Z,99448.94
2019-03-10T08:06:35.881Z,99430.04
2019-03-10T08:11:40.994Z,99425.67
2019-03-10T08:16:46.131Z,99419.34
2019-03-10T08:22:15.967Z,99407.47
2019-03-10T08:27:24.152Z,99397.34
2019-03-10T08:32:44.615Z,99392.41
2019-03-10T08:37:55.768Z,99393.69
2019-03-10T08:43:16.362Z,99365.45
2019-03-10T08:48:21.466Z,99373.36
2019-03-10T08:53:26.699Z,99361.86
2019-03-10T08:58:37.966Z,99355.09
2019-03-10T09:03:55.027Z,99338.81
2019-03-10T09:09:16.366Z,99328.02
2019-03-10T09:14:21.467Z,99332.31
2019-03-10T09:19:32.379Z,99316.52
2019-03-10T09:24:37.493Z,99301.05
2019-03-10T09:29:42.833Z,99292.59
2019-03-10T09:34:51.052Z,99284.06
2019-03-10T09:40:08.055Z,99276.77
2019-03-10T09:45:22.160Z,99286.00
2019-03-10T09:50:33.335Z,99290.14
2019-03-10T09:55:44.452Z,99284.47
2019-03-10T10:00:52.334Z,99273.00
2019-03-10T10:06:00.165Z,99257.42
2019-03-10T10:11:05.289Z,99253.09
2019-03-10T10:16:26.667Z,99232.48
2019-03-10T10:21:37.476Z,99232.48
2019-03-10T10:26:51.635Z,99234.44
2019-03-10T10:32:05.250Z,99247.22
2019-03-10T10:37:22.296Z,99230.73
2019-03-10T10:42:30.078Z,99220.69
2019-03-10T10:47:43.898Z,99197.91
2019-03-10T10:52:49.016Z,99199.30
2019-03-10T10:58:00.055Z,99184.65
2019-03-10T11:03:21.248Z,99158.88
2019-03-10T11:08:26.361Z,99159.10
2019-03-10T11:13:31.547Z,99143.28
2019-03-10T11:18:45.749Z,99127.42
2019-03-10T11:23:50.891Z,99123.44
2019-03-10T11:29:03.920Z,99113.14
2019-03-10T11:34:17.581Z,99107.84
2019-03-10T11:39:31.518Z,99087.09
2019-03-10T11:44:39.345Z,99079.35
2019-03-10T11:49:50.456Z,99073.20
2019-03-10T11:54:58.619Z,99060.04
2019-03-10T12:00:03.753Z,99056.34
2019-03-10T12:05:17.456Z,99056.15
2019-03-10T12:10:21.667Z,99049.66
2019-03-10T12:15:25.344Z,99021.64
2019-03-10T12:20:29.029Z,99021.64
2019-03-10T12:25:32.571Z,99005.63
2019-03-10T12:30:36.104Z,98996.22
2019-03-10T12:35:39.690Z,98977.41
2019-03-10T12:40:43.241Z,98974.38
2019-03-10T12:45:46.783Z,98953.44
2019-03-10T12:50:50.350Z,98945.12
2019-03-10T12:55:53.944Z,98923.88
2019-03-10T13:01:05.703Z,98915.92
2019-03-10T13:06:02.805Z,98868.83
2019-03-10T13:11:06.412Z,98868.83
2019-03-10T13:16:12.265Z,98867.80
2019-03-10T13:21:15.286Z,98847.95
2019-03-10T13:26:18.830Z,98836.50
2019-03-10T13:31:22.421Z,98830.30
2019-03-10T13:36:25.941Z,98810.78
2019-03-10T13:41:29.594Z,98815.61
2019-03-10T13:46:33.120Z,98800.54
2019-03-10T13:51:36.731Z,98784.16
2019-03-10T13:56:40.349Z,98756.77
2019-03-10T14:01:43.897Z,98752.69
2019-03-10T14:06:47.470Z,98716.50
2019-03-10T14:11:51.012Z,98693.76
2019-03-10T14:16:54.962Z,98654.06
2019-03-10T14:21:58.508Z,98660.56
2019-03-10T14:27:02.071Z,98665.17
2019-03-10T14:32:05.606Z,98643.08
2019-03-10T14:37:09.153Z,98643.08
2019-03-10T14:42:12.727Z,98604.39
2019-03-10T14:47:16.293Z,98573.50
2019-03-10T14:52:23.025Z,98559.81
2019-03-10T14:57:26.560Z,98529.39
2019-03-10T15:02:30.123Z,98471.75
2019-03-10T15:07:33.683Z,98462.57
2019-03-10T15:12:37.218Z,98473.39
2019-03-10T15:17:40.760Z,98449.98
2019-03-10T15:22:44.321Z,98425.54
2019-03-10T15:27:47.904Z,98390.44
2019-03-10T15:32:51.946Z,98388.22
2019-03-10T15:37:55.517Z,98374.88
2019-03-10T15:42:59.059Z,98373.75
2019-03-10T15:48:02.637Z,98367.81
2019-03-10T15:53:06.253Z,98347.69
2019-03-10T15:58:09.839Z,98360.98
2019-03-10T16:03:13.372Z,98357.52
2019-03-10T16:08:16.965Z,98361.02
2019-03-10T16:13:20.494Z,98350.82
2019-03-10T16:18:24.108Z,98357.40
2019-03-10T16:23:27.652Z,98353.54
2019-03-10T16:28:31.237Z,98340.55
2019-03-10T16:33:34.750Z,98332.53
2019-03-10T16:38:38.304Z,98325.08
2019-03-10T16:43:41.833Z,98314.34
2019-03-10T16:48:45.655Z,98308.15
2019-03-10T16:53:49.183Z,98313.37
2019-03-10T16:58:52.718Z,98307.43
2019-03-10T17:03:56.397Z,98304.88
2019-03-10T17:08:59.938Z,98302.63
2019-03-10T17:14:03.884Z,98302.23
2019-03-10T17:19:09.536Z,98303.07
2019-03-10T17:24:13.139Z,98305.08
2019-03-10T17:29:16.995Z,98291.38
2019-03-10T17:34:20.665Z,98302.36
2019-03-10T17:39:24.516Z,98283.23
2019-03-10T17:44:28.037Z,98292.56
2019-03-10T17:49:31.570Z,98295.41
2019-03-10T17:54:35.179Z,98284.28
2019-03-10T17:59:38.690Z,98277.97
2019-03-10T18:04:42.346Z,98278.05
2019-03-10T18:09:45.867Z,98260.89
2019-03-10T18:14:49.401Z,98247.93
2019-03-10T18:19:52.961Z,98245.96
2019-03-10T18:24:56.540Z,98252.33
2019-03-10T18:30:00.175Z,98280.77
2019-03-10T18:35:06.757Z,98290.76
2019-03-10T18:40:24.489Z,98300.23
2019-03-10T18:45:28.025Z,98300.94
2019-03-10T18:50:31.618Z,98285.77
2019-03-10T18:55:35.161Z,98286.86
2019-03-10T19:00:39.083Z,98299.31
2019-03-10T19:05:42.753Z,98295.15
2019-03-10T19:10:46.315Z,98302.08
2019-03-10T19:15:49.847Z,98293.56
2019-03-10T19:20:53.882Z,98324.20
2019-03-10T19:25:57.411Z,98303.00
2019-03-10T19:31:01.105Z,98295.03
2019-03-10T19:36:05.150Z,98284.97
2019-03-10T19:41:09.010Z,98261.73
2019-03-10T19:46:12.580Z,98264.73
2019-03-10T19:51:16.155Z,98261.34
2019-03-10T19:56:19.689Z,98274.55
2019-03-10T20:01:23.239Z,98276.59
2019-03-10T20:06:26.799Z,98277.16
2019-03-10T20:11:30.359Z,98271.86
2019-03-10T20:16:33.946Z,98246.59
2019-03-10T20:21:37.719Z,98222.25
2019-03-10T20:26:41.285Z,98251.45
2019-03-10T20:31:44.853Z,98257.09
2019-03-10T20:36:48.404Z,98263.39
2019-03-10T20:41:51.973Z,98257.13
2019-03-10T20:46:55.633Z,98258.95
2019-03-10T20:51:59.214Z,98271.84
2019-03-10T20:57:02.734Z,98279.25
2019-03-10T21:02:06.300Z,98256.69
2019-03-10T21:07:10.333Z,98283.34
2019-03-10T21:12:13.991Z,98282.22
2019-03-10T21:17:17.553Z,98287.53
2019-03-10T21:22:21.239Z,98296.78
2019-03-10T21:27:24.794Z,98289.87
2019-03-10T21:32:28.338Z,98296.58
2019-03-10T21:37:31.905Z,98312.84
2019-03-10T21:42:35.511Z,98309.02
2019-03-10T21:47:39.037Z,98309.27
2019-03-10T21:52:42.647Z,98324.37
2019-03-10T21:57:46.330Z,98317.48
2019-03-10T22:02:49.904Z,98311.16
2019-03-10T22:07:53.457Z,98303.27
2019-03-10T22:12:56.973Z,98293.23
2019-03-10T22:18:00.518Z,98308.16
2019-03-10T22:23:04.830Z,98305.13
2019-03-10T22:28:08.399Z,98323.11
2019-03-10T22:33:11.918Z,98299.13
2019-03-10T22:38:15.548Z,98318.49
2019-03-10T22:43:19.179Z,98308.87
2019-03-10T22:48:22.702Z,98331.70
2019-03-10T22:53:26.272Z,98321.36
2019-03-10T22:58:29.825Z,98358.17
2019-03-10T23:03:33.357Z,98316.39
2019-03-10T23:08:36.897Z,98356.35
2019-03-10T23:13:40.564Z,98375.61
2019-03-10T23:18:44.110Z,98397.74
2019-03-10T23:23:47.666Z,98396.30
2019-03-10T23:28:51.272Z,98426.92
2019-03-10T23:33:54.796Z,98453.84
2019-03-10T23:38:58.393Z,98476.94
2019-03-10T23:44:01.936Z,98510.88
2019-03-10T23:49:05.497Z,98599.90
2019-03-10T23:54:09.050Z,98636.27
2019-03-10T23:59:12.607Z,98778.20
